Time;durP1;ratioP1;P1;durP2;ratioP2;P2;SDS_P1;SDS_P2;PMS_P1;PMS_P2;Temp;Humidity;BMP_temperature;BMP_pressure;BME280_temperature;BME280_humidity;BME280_pressure;Samples;Min_cycle;Max_cycle;Signal;HPM_P1;HPM_P2
2024/01/09 00:00:40;;;;;;;122.20;39.30;;;;;;;-11.30;60.97;102521.19;674373;1259;140455;-82
2024/01/09 00:16:06;;;;;;;151.00;44.90;;;;;;;-11.19;61.25;102524.65;680760;1263;141121;-82
2024/01/09 00:31:10;;;;;;;303.60;90.90;;;;;;;-11.30;61.27;102531.48;678934;1260;140694;-82
2024/01/09 00:46:14;;;;;;;264.50;81.90;;;;;;;-11.21;61.37;102530.15;679408;1263;140157;-81
2024/01/09 01:01:18;;;;;;;240.00;81.00;;;;;;;-11.47;60.97;102529.97;678056;1263;140154;-81
2024/01/09 01:16:21;;;;;;;333.70;94.30;;;;;;;-11.66;61.07;102539.36;672023;1263;140731;-81
2024/01/09 01:31:25;;;;;;;281.90;84.40;;;;;;;-11.44;61.47;102541.79;676685;1273;140463;-81
2024/01/09 01:46:30;;;;;;;219.60;74.00;;;;;;;-11.81;61.22;102531.20;677172;1259;140443;-81
2024/01/09 02:01:34;;;;;;;229.60;72.20;;;;;;;-11.69;61.41;102520.21;677821;1263;140402;-81
2024/01/09 02:16:38;;;;;;;227.90;67.10;;;;;;;-11.59;61.45;102509.94;677673;1261;140733;-81
2024/01/09 02:31:42;;;;;;;257.20;79.60;;;;;;;-11.55;61.42;102502.66;680736;1270;140193;-82
2024/01/09 02:46:46;;;;;;;586.60;156.10;;;;;;;-11.82;61.70;102499.42;678199;1264;142101;-82
2024/01/09 03:01:49;;;;;;;233.00;73.10;;;;;;;-11.99;61.75;102496.60;679280;1273;141340;-81
2024/01/09 03:16:53;;;;;;;768.20;212.80;;;;;;;-12.00;61.74;102490.81;678975;1269;141498;-81
2024/01/09 03:31:57;;;;;;;1036.00;269.90;;;;;;;-11.85;61.94;102490.70;680890;1268;140937;-82
2024/01/09 03:47:00;;;;;;;702.00;177.30;;;;;;;-11.79;61.99;102486.72;680817;1260;140603;-81
2024/01/09 04:02:04;;;;;;;525.60;136.00;;;;;;;-11.62;62.07;102501.23;680827;1264;140766;-82
2024/01/09 04:17:08;;;;;;;500.70;124.00;;;;;;;-11.38;62.14;102504.31;681629;1260;141299;-82
2024/01/09 04:32:12;;;;;;;295.70;83.70;;;;;;;-11.91;61.68;102491.98;681910;1269;140302;-82
2024/01/09 04:47:16;;;;;;;255.50;68.40;;;;;;;-12.11;61.92;102486.98;681976;1263;140737;-80
2024/01/09 05:02:20;;;;;;;232.10;70.60;;;;;;;-11.78;62.30;102489.13;681779;1263;141083;-80
2024/01/09 05:17:25;;;;;;;428.10;104.00;;;;;;;-11.45;62.34;102498.85;680551;1260;141078;-80
2024/01/09 05:32:29;;;;;;;342.90;93.30;;;;;;;-11.20;62.31;102502.48;679993;1259;141598;-80
2024/01/09 05:47:33;;;;;;;183.60;56.00;;;;;;;-11.34;62.12;102489.45;681500;1263;140315;-80
2024/01/09 06:02:37;;;;;;;154.40;48.50;;;;;;;-11.39;62.06;102484.02;680936;1259;141692;-80
2024/01/09 06:17:41;;;;;;;259.10;85.90;;;;;;;-11.51;62.23;102490.14;681701;1265;140197;-80
2024/01/09 06:32:48;;;;;;;221.00;68.30;;;;;;;-11.42;62.29;102491.34;681950;1262;139902;-81
2024/01/09 06:47:52;;;;;;;188.90;57.90;;;;;;;-11.67;62.33;102488.00;681932;1264;140310;-82
2024/01/09 07:02:56;;;;;;;402.50;119.20;;;;;;;-11.43;62.72;102496.02;681650;1264;140255;-81
2024/01/09 07:18:01;;;;;;;181.00;54.80;;;;;;;-11.15;62.78;102510.42;681879;1259;140277;-81
2024/01/09 07:33:04;;;;;;;195.00;60.70;;;;;;;-10.90;62.99;102501.35;681582;1262;139546;-83
2024/01/09 07:48:09;;;;;;;156.70;57.00;;;;;;;-10.51;63.14;102510.33;681792;1263;140061;-83
2024/01/09 08:03:14;;;;;;;245.50;83.60;;;;;;;-10.20;63.56;102512.35;681870;1262;140363;-82
2024/01/09 08:18:24;;;;;;;136.00;45.40;;;;;;;-9.82;63.99;102513.58;682104;1259;140295;-81
2024/01/09 08:33:33;;;;;;;105.00;34.50;;;;;;;-9.47;64.32;102522.63;681768;1260;140544;-81
2024/01/09 08:48:38;;;;;;;105.20;33.80;;;;;;;-8.76;64.74;102534.84;681947;1262;140122;-81
2024/01/09 09:03:45;;;;;;;246.60;119.20;;;;;;;-8.39;64.71;102524.98;681859;1259;140023;-81
2024/01/09 09:18:49;;;;;;;180.30;57.80;;;;;;;-7.72;65.30;102524.38;682113;1262;139949;-81
2024/01/09 09:33:54;;;;;;;151.50;51.80;;;;;;;-3.97;67.05;102519.85;681772;1262;140515;-83
2024/01/09 09:49:01;;;;;;;99.50;39.50;;;;;;;-0.48;61.20;102507.67;681955;1263;139660;-81
2024/01/09 10:04:18;;;;;;;81.20;33.30;;;;;;;0.81;56.58;102499.52;681974;1262;140270;-81
2024/01/09 10:19:23;;;;;;;92.50;32.70;;;;;;;0.68;54.31;102486.59;681871;1262;139267;-81
2024/01/09 10:34:28;;;;;;;72.80;31.50;;;;;;;0.47;53.29;102478.37;682070;1262;139106;-81
2024/01/09 10:49:32;;;;;;;75.90;26.00;;;;;;;-0.62;52.36;102470.83;682468;1275;138327;-81
2024/01/09 11:04:35;;;;;;;69.30;24.80;;;;;;;-1.13;51.68;102458.41;682123;1259;138421;-80
2024/01/09 11:19:39;;;;;;;81.00;28.70;;;;;;;-1.38;51.33;102460.56;682138;1262;138440;-80
2024/01/09 11:34:46;;;;;;;55.90;20.80;;;;;;;-1.01;51.20;102445.30;681879;1262;138687;-80
2024/01/09 11:49:56;;;;;;;53.00;21.90;;;;;;;-0.98;50.49;102433.59;682076;1262;138619;-83
2024/01/09 12:05:03;;;;;;;288.50;97.50;;;;;;;-1.72;51.53;102428.40;681910;1263;139369;-82
2024/01/09 12:20:10;;;;;;;387.30;90.30;;;;;;;-1.80;51.67;102412.11;681927;1275;139157;-83
2024/01/09 12:35:16;;;;;;;204.00;57.80;;;;;;;-1.73;52.52;102404.20;681874;1263;138857;-81
2024/01/09 12:50:28;;;;;;;175.50;49.10;;;;;;;-1.81;52.41;102402.17;681834;1262;139262;-82
2024/01/09 13:05:32;;;;;;;59.80;26.00;;;;;;;-1.81;52.74;102394.11;681509;1274;139380;-82
2024/01/09 13:20:38;;;;;;;80.90;30.20;;;;;;;-1.47;53.59;102379.03;681970;1259;139577;-83
2024/01/09 13:35:43;;;;;;;192.40;70.30;;;;;;;-1.74;53.48;102373.84;681998;1275;138742;-82
2024/01/09 13:50:48;;;;;;;144.10;48.40;;;;;;;-2.00;53.92;102367.91;681640;1262;140013;-83
2024/01/09 14:05:57;;;;;;;67.20;30.90;;;;;;;-2.02;54.78;102361.23;681960;1262;138415;-82
2024/01/09 14:21:03;;;;;;;112.80;35.80;;;;;;;-2.13;55.19;102356.27;681803;1263;139975;-81
2024/01/09 14:36:07;;;;;;;202.30;68.80;;;;;;;-2.42;55.84;102343.12;681807;1265;139347;-82
2024/01/09 14:51:24;;;;;;;119.20;42.50;;;;;;;-2.09;57.49;102342.20;681788;1262;140127;-83
2024/01/09 15:06:28;;;;;;;129.30;40.70;;;;;;;-2.47;56.90;102347.05;681897;1264;140130;-82
2024/01/09 15:21:33;;;;;;;86.00;32.50;;;;;;;-3.42;57.14;102335.13;681711;1260;139958;-81
2024/01/09 15:36:43;;;;;;;;;;;;;;;-3.94;57.47;102326.90;681974;1263;139875;-81
2024/01/09 15:51:49;;;;;;;298.40;85.20;;;;;;;-4.09;57.89;102328.87;681837;1262;125234;-81
2024/01/09 16:06:53;;;;;;;128.60;46.50;;;;;;;-4.05;58.39;102331.44;682031;1262;139224;-80
2024/01/09 16:21:58;;;;;;;103.20;35.60;;;;;;;-4.31;58.61;102335.91;681768;1266;140088;-80
2024/01/09 16:37:04;;;;;;;165.80;54.00;;;;;;;-4.45;58.82;102334.11;681597;1262;139281;-80
2024/01/09 16:52:08;;;;;;;322.80;93.40;;;;;;;-4.60;59.13;102326.15;681840;1262;139901;-80
2024/01/09 17:07:11;;;;;;;205.90;60.40;;;;;;;-4.64;59.63;102327.98;681589;1263;139289;-80
2024/01/09 17:22:15;;;;;;;147.90;43.40;;;;;;;-4.72;59.83;102332.71;681727;1261;139905;-81
2024/01/09 17:37:20;;;;;;;126.30;42.00;;;;;;;-4.92;60.16;102324.69;681968;1263;139257;-81
2024/01/09 17:52:26;;;;;;;103.90;35.40;;;;;;;-5.14;60.13;102308.94;682058;1264;139782;-78
2024/01/09 18:07:31;;;;;;;130.80;43.70;;;;;;;-5.08;60.45;102311.73;681895;1263;139808;-80
2024/01/09 18:22:35;;;;;;;425.90;111.50;;;;;;;-4.75;60.82;102314.92;681702;1261;140366;-80
2024/01/09 18:37:39;;;;;;;244.20;69.10;;;;;;;-4.87;60.38;102304.91;682007;1264;140290;-81
2024/01/09 18:52:43;;;;;;;96.80;37.70;;;;;;;-5.25;60.78;102289.55;681607;1264;140124;-79
2024/01/09 19:07:49;;;;;;;114.20;34.10;;;;;;;-5.07;61.42;102286.66;681596;1262;139686;-79
2024/01/09 19:22:55;;;;;;;94.40;29.60;;;;;;;-4.73;61.41;102281.30;681627;1263;166246;-79
2024/01/09 19:38:00;;;;;;;110.20;31.70;;;;;;;-4.55;61.79;102255.80;681795;1264;139712;-80
2024/01/09 19:53:04;;;;;;;132.20;38.40;;;;;;;-4.23;62.83;102256.66;681269;1264;139745;-80
2024/01/09 20:08:09;;;;;;;180.20;47.80;;;;;;;-4.04;63.49;102254.53;681448;1264;139600;-81
2024/01/09 20:23:13;;;;;;;130.40;39.90;;;;;;;-3.80;64.35;102263.70;681463;1261;140737;-81
2024/01/09 20:38:18;;;;;;;65.50;24.50;;;;;;;-3.67;64.94;102263.73;681559;1263;139714;-81
2024/01/09 20:53:22;;;;;;;87.40;33.00;;;;;;;-3.65;65.79;102256.20;681502;1264;140007;-81
2024/01/09 21:08:26;;;;;;;140.90;45.60;;;;;;;-3.67;67.10;102241.33;681679;1261;139580;-81
2024/01/09 21:23:30;;;;;;;267.50;74.80;;;;;;;-3.72;68.88;102232.92;681465;1263;140238;-81
2024/01/09 21:38:44;;;;;;;186.40;56.30;;;;;;;-3.53;69.84;102228.70;681392;1263;139817;-81
2024/01/09 21:53:50;;;;;;;86.90;32.50;;;;;;;-3.33;70.37;102223.75;681582;1264;139828;-81
2024/01/09 22:08:54;;;;;;;327.40;87.20;;;;;;;-3.22;71.19;102217.27;681230;1260;140313;-80
2024/01/09 22:23:58;;;;;;;115.70;38.70;;;;;;;-3.09;71.68;102208.88;681218;1264;140689;-81
2024/01/09 22:39:02;;;;;;;88.10;31.90;;;;;;;-3.06;73.56;102214.02;681320;1263;139795;-81
2024/01/09 22:54:07;;;;;;;76.40;27.70;;;;;;;-2.95;74.87;102212.13;681562;1263;139611;-81
2024/01/09 23:09:11;;;;;;;;;;;;;;;-2.76;75.76;102192.05;681526;1260;140211;-81
2024/01/09 23:24:15;;;;;;;98.00;32.30;;;;;;;-2.62;76.86;102175.92;681313;1264;125713;-80
2024/01/09 23:39:19;;;;;;;;;;;;;;;-2.51;77.73;102176.39;681133;1260;139855;-80
2024/01/09 23:54:22;;;;;;;99.10;30.00;;;;;;;-2.39;78.24;102180.81;681355;1263;126777;-81
